Bushy Park, Australia
Current Conditions -  °F | °C
As of 5:00 PM on Friday 31 Oct 2014 (Local Time) from YMHB Reporting Station
Broken Clouds Broken Clouds  
Wind Chill: 73°   Ceiling: 10000
Heat Index: 73°   Visibility: 6mi
Dew Point: 50°   Wind: 13mph
Humidity: 44%   Direction: 320°NW
Pressure: 29.41"   Gusts: NA
Location:  42.7°S, 146.88°E
Report Text: YMHB 310600Z 32011KT 9999 FEW042 BKN100 23/10 Q0996
Loading
Personal Weather Stations






























Interactive Weather Map New forecast layout! Learn more

10-Day Weather Forecast

Advertisements
Track Severe Weather on mobile